Terminal Aerodrome Forecast
Issued by NWS

Home | Current Version | Previous Version | Text Only | Print | Product List | Glossary On
Versions: 1 2 3 4 5 6 7 8 9 10 11 12 13 14 15 16 17 18 19 20 21
490
FTPA31 PHFO 142334
TAFHNY
TAF
PHNY 142334Z 1500/1524 04024G31KT P6SM VCSH SCT025 BKN035
     FM150800 04020G28KT P6SM VCSH SCT030
     FM152000 05018G26KT P6SM VCSH SCT025 BKN035=

USA.gov is the U.S. government's official web portal to all federal, state and local government web resources and services.